sensor_id;sensor_type;location;lat;lon;timestamp;P1;durP1;ratioP1;P2;durP2;ratioP2
51724;SDS011;37801;53.224;6.552;2022-12-20T00:00:16;10.35;;;6.07;;
51724;SDS011;37801;53.224;6.552;2022-12-20T00:02:42;10.85;;;5.35;;
51724;SDS011;37801;53.224;6.552;2022-12-20T00:05:09;8.27;;;5.55;;
51724;SDS011;37801;53.224;6.552;2022-12-20T00:07:34;11.95;;;6.68;;
51724;SDS011;37801;53.224;6.552;2022-12-20T00:10:00;11.93;;;5.80;;
51724;SDS011;37801;53.224;6.552;2022-12-20T00:12:26;10.05;;;5.53;;
51724;SDS011;37801;53.224;6.552;2022-12-20T00:14:51;8.90;;;5.40;;
51724;SDS011;37801;53.224;6.552;2022-12-20T00:17:17;8.00;;;5.45;;
51724;SDS011;37801;53.224;6.552;2022-12-20T00:19:43;9.60;;;5.72;;
51724;SDS011;37801;53.224;6.552;2022-12-20T00:22:09;8.23;;;5.45;;
51724;SDS011;37801;53.224;6.552;2022-12-20T00:24:35;9.02;;;5.38;;
51724;SDS011;37801;53.224;6.552;2022-12-20T00:27:01;9.15;;;5.28;;
51724;SDS011;37801;53.224;6.552;2022-12-20T00:29:26;8.77;;;5.43;;
51724;SDS011;37801;53.224;6.552;2022-12-20T00:31:52;8.02;;;5.15;;
51724;SDS011;37801;53.224;6.552;2022-12-20T00:34:18;8.30;;;5.53;;
51724;SDS011;37801;53.224;6.552;2022-12-20T00:36:44;11.55;;;5.50;;
51724;SDS011;37801;53.224;6.552;2022-12-20T00:39:10;7.95;;;5.20;;
51724;SDS011;37801;53.224;6.552;2022-12-20T00:41:35;8.20;;;5.25;;
51724;SDS011;37801;53.224;6.552;2022-12-20T00:44:02;9.00;;;5.47;;
51724;SDS011;37801;53.224;6.552;2022-12-20T00:46:28;9.40;;;5.47;;
51724;SDS011;37801;53.224;6.552;2022-12-20T00:48:55;8.88;;;5.30;;
51724;SDS011;37801;53.224;6.552;2022-12-20T00:51:22;8.25;;;5.22;;
51724;SDS011;37801;53.224;6.552;2022-12-20T00:53:50;7.35;;;5.07;;
51724;SDS011;37801;53.224;6.552;2022-12-20T00:56:16;8.38;;;5.28;;
51724;SDS011;37801;53.224;6.552;2022-12-20T00:58:42;8.88;;;5.80;;
51724;SDS011;37801;53.224;6.552;2022-12-20T01:03:42;9.02;;;5.47;;
51724;SDS011;37801;53.224;6.552;2022-12-20T01:06:08;8.68;;;5.72;;
51724;SDS011;37801;53.224;6.552;2022-12-20T01:08:34;9.40;;;5.22;;
51724;SDS011;37801;53.224;6.552;2022-12-20T01:11:01;8.77;;;5.28;;
51724;SDS011;37801;53.224;6.552;2022-12-20T01:13:29;7.28;;;5.35;;
51724;SDS011;37801;53.224;6.552;2022-12-20T01:15:56;6.72;;;5.15;;
51724;SDS011;37801;53.224;6.552;2022-12-20T01:18:28;9.30;;;5.22;;
51724;SDS011;37801;53.224;6.552;2022-12-20T01:21:04;9.18;;;5.63;;
51724;SDS011;37801;53.224;6.552;2022-12-20T01:23:32;8.63;;;4.97;;
51724;SDS011;37801;53.224;6.552;2022-12-20T01:25:59;12.90;;;5.53;;
51724;SDS011;37801;53.224;6.552;2022-12-20T01:28:26;11.15;;;5.35;;
51724;SDS011;37801;53.224;6.552;2022-12-20T01:30:52;11.38;;;6.03;;
51724;SDS011;37801;53.224;6.552;2022-12-20T01:33:19;8.18;;;5.40;;
51724;SDS011;37801;53.224;6.552;2022-12-20T01:35:55;7.80;;;5.13;;
51724;SDS011;37801;53.224;6.552;2022-12-20T01:38:25;7.97;;;5.30;;
51724;SDS011;37801;53.224;6.552;2022-12-20T01:40:52;7.60;;;4.60;;
51724;SDS011;37801;53.224;6.552;2022-12-20T01:43:19;7.85;;;5.68;;
51724;SDS011;37801;53.224;6.552;2022-12-20T01:45:45;9.07;;;4.72;;
51724;SDS011;37801;53.224;6.552;2022-12-20T01:48:13;8.13;;;5.20;;
51724;SDS011;37801;53.224;6.552;2022-12-20T01:50:43;9.85;;;5.30;;
51724;SDS011;37801;53.224;6.552;2022-12-20T01:53:10;6.57;;;4.97;;
51724;SDS011;37801;53.224;6.552;2022-12-20T01:55:36;7.22;;;4.93;;
51724;SDS011;37801;53.224;6.552;2022-12-20T01:58:06;9.35;;;5.20;;
51724;SDS011;37801;53.224;6.552;2022-12-20T02:00:34;9.02;;;5.05;;
51724;SDS011;37801;53.224;6.552;2022-12-20T02:03:03;7.68;;;5.05;;
51724;SDS011;37801;53.224;6.552;2022-12-20T02:05:37;8.25;;;4.95;;
51724;SDS011;37801;53.224;6.552;2022-12-20T02:08:05;6.82;;;4.75;;
51724;SDS011;37801;53.224;6.552;2022-12-20T02:10:58;7.28;;;4.72;;
51724;SDS011;37801;53.224;6.552;2022-12-20T02:13:36;7.35;;;4.90;;
51724;SDS011;37801;53.224;6.552;2022-12-20T02:16:43;8.73;;;4.68;;
51724;SDS011;37801;53.224;6.552;2022-12-20T02:22:25;8.13;;;5.05;;
51724;SDS011;37801;53.224;6.552;2022-12-20T02:30:38;8.20;;;5.13;;
51724;SDS011;37801;53.224;6.552;2022-12-20T02:33:09;8.18;;;4.72;;
51724;SDS011;37801;53.224;6.552;2022-12-20T02:35:37;8.65;;;5.15;;
51724;SDS011;37801;53.224;6.552;2022-12-20T02:38:23;6.70;;;4.32;;
51724;SDS011;37801;53.224;6.552;2022-12-20T02:40:53;8.35;;;4.93;;
51724;SDS011;37801;53.224;6.552;2022-12-20T02:43:41;10.23;;;4.68;;
51724;SDS011;37801;53.224;6.552;2022-12-20T02:46:28;6.57;;;4.70;;
51724;SDS011;37801;53.224;6.552;2022-12-20T02:48:58;7.15;;;4.63;;
51724;SDS011;37801;53.224;6.552;2022-12-20T02:51:29;5.95;;;4.05;;
51724;SDS011;37801;53.224;6.552;2022-12-20T02:53:57;8.10;;;4.72;;
51724;SDS011;37801;53.224;6.552;2022-12-20T02:59:20;6.97;;;4.38;;
51724;SDS011;37801;53.224;6.552;2022-12-20T03:02:10;8.45;;;5.00;;
51724;SDS011;37801;53.224;6.552;2022-12-20T03:04:38;6.90;;;4.40;;
51724;SDS011;37801;53.224;6.552;2022-12-20T03:07:06;8.23;;;4.40;;
51724;SDS011;37801;53.224;6.552;2022-12-20T03:09:41;8.07;;;4.55;;
51724;SDS011;37801;53.224;6.552;2022-12-20T03:12:09;8.45;;;5.03;;
51724;SDS011;37801;53.224;6.552;2022-12-20T03:14:36;6.38;;;4.10;;
51724;SDS011;37801;53.224;6.552;2022-12-20T03:17:02;7.85;;;4.60;;
51724;SDS011;37801;53.224;6.552;2022-12-20T03:19:29;7.05;;;4.57;;
51724;SDS011;37801;53.224;6.552;2022-12-20T03:21:55;7.38;;;4.25;;
51724;SDS011;37801;53.224;6.552;2022-12-20T03:24:20;7.70;;;4.47;;
51724;SDS011;37801;53.224;6.552;2022-12-20T03:26:46;9.05;;;4.88;;
51724;SDS011;37801;53.224;6.552;2022-12-20T03:29:12;7.55;;;4.75;;
51724;SDS011;37801;53.224;6.552;2022-12-20T03:31:38;9.20;;;4.43;;
51724;SDS011;37801;53.224;6.552;2022-12-20T03:34:04;7.57;;;4.70;;
51724;SDS011;37801;53.224;6.552;2022-12-20T03:36:29;7.45;;;4.60;;
51724;SDS011;37801;53.224;6.552;2022-12-20T03:38:55;6.43;;;4.78;;
51724;SDS011;37801;53.224;6.552;2022-12-20T03:41:21;9.82;;;5.28;;
51724;SDS011;37801;53.224;6.552;2022-12-20T03:43:48;10.23;;;4.93;;
51724;SDS011;37801;53.224;6.552;2022-12-20T03:46:14;9.30;;;4.63;;
51724;SDS011;37801;53.224;6.552;2022-12-20T03:48:41;6.85;;;4.80;;
51724;SDS011;37801;53.224;6.552;2022-12-20T03:51:07;7.40;;;4.60;;
51724;SDS011;37801;53.224;6.552;2022-12-20T03:53:33;9.30;;;5.10;;
51724;SDS011;37801;53.224;6.552;2022-12-20T03:55:58;9.15;;;4.72;;
51724;SDS011;37801;53.224;6.552;2022-12-20T03:58:24;8.82;;;4.38;;
51724;SDS011;37801;53.224;6.552;2022-12-20T04:00:50;7.15;;;3.97;;
51724;SDS011;37801;53.224;6.552;2022-12-20T04:03:16;6.97;;;4.65;;
51724;SDS011;37801;53.224;6.552;2022-12-20T04:05:41;7.13;;;4.78;;
51724;SDS011;37801;53.224;6.552;2022-12-20T04:08:07;11.07;;;5.00;;
51724;SDS011;37801;53.224;6.552;2022-12-20T04:10:32;9.18;;;4.50;;
51724;SDS011;37801;53.224;6.552;2022-12-20T04:13:18;8.00;;;4.53;;
51724;SDS011;37801;53.224;6.552;2022-12-20T04:15:44;5.70;;;4.18;;
51724;SDS011;37801;53.224;6.552;2022-12-20T04:18:09;9.25;;;4.55;;
51724;SDS011;37801;53.224;6.552;2022-12-20T04:20:35;9.05;;;4.63;;
51724;SDS011;37801;53.224;6.552;2022-12-20T04:23:01;7.00;;;4.45;;
51724;SDS011;37801;53.224;6.552;2022-12-20T04:25:26;9.65;;;4.40;;
51724;SDS011;37801;53.224;6.552;2022-12-20T04:27:52;6.07;;;4.32;;
51724;SDS011;37801;53.224;6.552;2022-12-20T04:30:18;7.63;;;4.38;;
51724;SDS011;37801;53.224;6.552;2022-12-20T04:32:43;7.90;;;4.63;;
51724;SDS011;37801;53.224;6.552;2022-12-20T04:35:09;9.90;;;5.03;;
51724;SDS011;37801;53.224;6.552;2022-12-20T04:37:35;9.30;;;4.78;;
51724;SDS011;37801;53.224;6.552;2022-12-20T04:40:01;9.45;;;4.53;;
51724;SDS011;37801;53.224;6.552;2022-12-20T04:42:26;6.88;;;4.95;;
51724;SDS011;37801;53.224;6.552;2022-12-20T04:44:52;6.50;;;4.55;;
51724;SDS011;37801;53.224;6.552;2022-12-20T04:47:18;6.80;;;4.60;;
51724;SDS011;37801;53.224;6.552;2022-12-20T04:49:44;8.70;;;4.95;;
51724;SDS011;37801;53.224;6.552;2022-12-20T04:52:09;8.60;;;4.72;;
51724;SDS011;37801;53.224;6.552;2022-12-20T04:57:19;7.78;;;5.32;;
51724;SDS011;37801;53.224;6.552;2022-12-20T04:59:45;9.23;;;5.63;;
51724;SDS011;37801;53.224;6.552;2022-12-20T05:02:10;9.07;;;5.47;;
51724;SDS011;37801;53.224;6.552;2022-12-20T05:04:36;9.00;;;5.35;;
51724;SDS011;37801;53.224;6.552;2022-12-20T05:07:02;7.25;;;5.00;;
51724;SDS011;37801;53.224;6.552;2022-12-20T05:09:27;7.85;;;5.00;;
51724;SDS011;37801;53.224;6.552;2022-12-20T05:11:53;7.13;;;5.38;;
51724;SDS011;37801;53.224;6.552;2022-12-20T05:14:19;7.47;;;4.97;;
51724;SDS011;37801;53.224;6.552;2022-12-20T05:16:44;8.95;;;5.05;;
51724;SDS011;37801;53.224;6.552;2022-12-20T05:19:10;7.80;;;5.32;;
51724;SDS011;37801;53.224;6.552;2022-12-20T05:21:36;7.47;;;4.88;;
51724;SDS011;37801;53.224;6.552;2022-12-20T05:24:20;9.23;;;5.50;;
51724;SDS011;37801;53.224;6.552;2022-12-20T05:27:04;8.10;;;5.03;;
51724;SDS011;37801;53.224;6.552;2022-12-20T05:29:29;11.15;;;5.35;;
51724;SDS011;37801;53.224;6.552;2022-12-20T05:31:55;9.07;;;5.03;;
51724;SDS011;37801;53.224;6.552;2022-12-20T05:34:21;8.68;;;4.70;;
51724;SDS011;37801;53.224;6.552;2022-12-20T05:36:47;7.88;;;5.05;;
51724;SDS011;37801;53.224;6.552;2022-12-20T05:39:12;11.00;;;5.28;;
51724;SDS011;37801;53.224;6.552;2022-12-20T05:41:38;7.40;;;4.97;;
51724;SDS011;37801;53.224;6.552;2022-12-20T05:44:05;8.30;;;4.85;;
51724;SDS011;37801;53.224;6.552;2022-12-20T05:46:31;11.73;;;5.28;;
51724;SDS011;37801;53.224;6.552;2022-12-20T05:48:57;7.07;;;4.68;;
51724;SDS011;37801;53.224;6.552;2022-12-20T05:51:23;7.57;;;4.75;;
51724;SDS011;37801;53.224;6.552;2022-12-20T05:53:49;7.80;;;4.65;;
51724;SDS011;37801;53.224;6.552;2022-12-20T05:56:14;7.22;;;4.85;;
51724;SDS011;37801;53.224;6.552;2022-12-20T05:58:40;7.85;;;5.05;;
51724;SDS011;37801;53.224;6.552;2022-12-20T06:01:06;9.07;;;5.10;;
51724;SDS011;37801;53.224;6.552;2022-12-20T06:03:33;8.73;;;4.82;;
51724;SDS011;37801;53.224;6.552;2022-12-20T06:05:59;8.00;;;4.68;;
51724;SDS011;37801;53.224;6.552;2022-12-20T06:08:25;9.00;;;4.97;;
51724;SDS011;37801;53.224;6.552;2022-12-20T06:10:51;8.60;;;4.75;;
51724;SDS011;37801;53.224;6.552;2022-12-20T06:13:17;9.75;;;5.05;;
51724;SDS011;37801;53.224;6.552;2022-12-20T06:15:43;6.50;;;4.57;;
51724;SDS011;37801;53.224;6.552;2022-12-20T06:18:09;7.57;;;4.45;;
51724;SDS011;37801;53.224;6.552;2022-12-20T06:20:35;6.60;;;4.50;;
51724;SDS011;37801;53.224;6.552;2022-12-20T06:23:02;6.65;;;4.43;;
51724;SDS011;37801;53.224;6.552;2022-12-20T06:25:28;8.15;;;4.88;;
51724;SDS011;37801;53.224;6.552;2022-12-20T06:27:54;6.47;;;4.00;;
51724;SDS011;37801;53.224;6.552;2022-12-20T06:30:20;6.10;;;4.15;;
51724;SDS011;37801;53.224;6.552;2022-12-20T06:32:47;6.55;;;4.13;;
51724;SDS011;37801;53.224;6.552;2022-12-20T06:35:12;6.65;;;4.20;;
51724;SDS011;37801;53.224;6.552;2022-12-20T06:37:39;7.15;;;4.07;;
51724;SDS011;37801;53.224;6.552;2022-12-20T06:40:09;7.70;;;4.55;;
51724;SDS011;37801;53.224;6.552;2022-12-20T06:42:36;6.13;;;4.18;;
51724;SDS011;37801;53.224;6.552;2022-12-20T06:45:03;7.25;;;4.28;;
51724;SDS011;37801;53.224;6.552;2022-12-20T06:47:30;8.23;;;4.28;;
51724;SDS011;37801;53.224;6.552;2022-12-20T06:49:56;8.70;;;4.70;;
51724;SDS011;37801;53.224;6.552;2022-12-20T06:52:22;7.65;;;4.70;;
51724;SDS011;37801;53.224;6.552;2022-12-20T06:54:48;7.80;;;4.53;;
51724;SDS011;37801;53.224;6.552;2022-12-20T06:57:13;6.85;;;4.05;;
51724;SDS011;37801;53.224;6.552;2022-12-20T06:59:39;6.20;;;4.20;;
51724;SDS011;37801;53.224;6.552;2022-12-20T07:02:05;7.00;;;4.50;;
51724;SDS011;37801;53.224;6.552;2022-12-20T07:04:31;10.07;;;5.10;;
51724;SDS011;37801;53.224;6.552;2022-12-20T07:06:56;7.38;;;4.32;;
51724;SDS011;37801;53.224;6.552;2022-12-20T07:09:22;8.27;;;4.45;;
51724;SDS011;37801;53.224;6.552;2022-12-20T07:11:48;7.63;;;4.82;;
51724;SDS011;37801;53.224;6.552;2022-12-20T07:14:14;8.20;;;4.53;;
51724;SDS011;37801;53.224;6.552;2022-12-20T07:16:40;6.68;;;4.55;;
51724;SDS011;37801;53.224;6.552;2022-12-20T07:19:09;7.82;;;4.85;;
51724;SDS011;37801;53.224;6.552;2022-12-20T07:21:36;9.27;;;4.78;;
51724;SDS011;37801;53.224;6.552;2022-12-20T07:24:02;7.63;;;4.85;;
51724;SDS011;37801;53.224;6.552;2022-12-20T07:26:28;7.07;;;5.28;;
51724;SDS011;37801;53.224;6.552;2022-12-20T07:28:53;8.73;;;5.68;;
51724;SDS011;37801;53.224;6.552;2022-12-20T07:31:19;9.80;;;5.53;;
51724;SDS011;37801;53.224;6.552;2022-12-20T07:33:45;8.57;;;6.45;;
51724;SDS011;37801;53.224;6.552;2022-12-20T07:36:12;8.07;;;5.88;;
51724;SDS011;37801;53.224;6.552;2022-12-20T07:38:40;10.85;;;6.38;;
51724;SDS011;37801;53.224;6.552;2022-12-20T07:41:09;10.10;;;6.20;;
51724;SDS011;37801;53.224;6.552;2022-12-20T07:43:39;8.32;;;5.82;;
51724;SDS011;37801;53.224;6.552;2022-12-20T07:46:06;10.00;;;6.53;;
51724;SDS011;37801;53.224;6.552;2022-12-20T07:48:32;10.10;;;6.00;;
51724;SDS011;37801;53.224;6.552;2022-12-20T07:51:06;9.82;;;6.25;;
51724;SDS011;37801;53.224;6.552;2022-12-20T07:53:53;9.32;;;6.38;;
51724;SDS011;37801;53.224;6.552;2022-12-20T07:56:26;8.25;;;6.10;;
51724;SDS011;37801;53.224;6.552;2022-12-20T07:58:53;9.35;;;6.63;;
51724;SDS011;37801;53.224;6.552;2022-12-20T08:01:23;8.80;;;6.40;;
51724;SDS011;37801;53.224;6.552;2022-12-20T08:03:51;9.73;;;7.10;;
51724;SDS011;37801;53.224;6.552;2022-12-20T08:06:21;8.98;;;6.47;;
51724;SDS011;37801;53.224;6.552;2022-12-20T08:08:58;8.18;;;6.55;;
51724;SDS011;37801;53.224;6.552;2022-12-20T08:11:26;10.80;;;7.15;;
51724;SDS011;37801;53.224;6.552;2022-12-20T08:13:55;9.55;;;6.45;;
51724;SDS011;37801;53.224;6.552;2022-12-20T08:16:21;9.07;;;6.18;;
51724;SDS011;37801;53.224;6.552;2022-12-20T08:18:46;8.18;;;6.07;;
51724;SDS011;37801;53.224;6.552;2022-12-20T08:21:12;10.98;;;6.63;;
51724;SDS011;37801;53.224;6.552;2022-12-20T08:23:38;9.10;;;6.47;;
51724;SDS011;37801;53.224;6.552;2022-12-20T08:26:04;8.85;;;6.35;;
51724;SDS011;37801;53.224;6.552;2022-12-20T08:28:31;8.07;;;6.30;;
51724;SDS011;37801;53.224;6.552;2022-12-20T08:31:04;9.85;;;5.97;;
51724;SDS011;37801;53.224;6.552;2022-12-20T08:33:32;7.80;;;5.93;;
51724;SDS011;37801;53.224;6.552;2022-12-20T08:35:59;8.52;;;6.32;;
51724;SDS011;37801;53.224;6.552;2022-12-20T08:38:27;9.05;;;5.70;;
51724;SDS011;37801;53.224;6.552;2022-12-20T08:40:55;9.02;;;5.65;;
51724;SDS011;37801;53.224;6.552;2022-12-20T08:43:26;9.05;;;5.25;;
51724;SDS011;37801;53.224;6.552;2022-12-20T08:45:52;10.23;;;6.07;;
51724;SDS011;37801;53.224;6.552;2022-12-20T08:48:19;6.72;;;5.15;;
51724;SDS011;37801;53.224;6.552;2022-12-20T08:50:45;8.40;;;5.47;;
51724;SDS011;37801;53.224;6.552;2022-12-20T08:53:11;8.85;;;5.32;;
51724;SDS011;37801;53.224;6.552;2022-12-20T08:55:37;8.05;;;4.90;;
51724;SDS011;37801;53.224;6.552;2022-12-20T08:58:03;15.13;;;5.85;;
51724;SDS011;37801;53.224;6.552;2022-12-20T09:00:28;8.60;;;5.32;;
51724;SDS011;37801;53.224;6.552;2022-12-20T09:02:54;7.88;;;5.10;;
51724;SDS011;37801;53.224;6.552;2022-12-20T09:05:20;8.27;;;5.22;;
51724;SDS011;37801;53.224;6.552;2022-12-20T09:07:45;14.88;;;5.38;;
51724;SDS011;37801;53.224;6.552;2022-12-20T09:10:11;7.93;;;4.90;;
51724;SDS011;37801;53.224;6.552;2022-12-20T09:12:37;7.60;;;5.05;;
51724;SDS011;37801;53.224;6.552;2022-12-20T09:15:03;7.60;;;4.70;;
51724;SDS011;37801;53.224;6.552;2022-12-20T09:17:30;8.05;;;4.40;;
51724;SDS011;37801;53.224;6.552;2022-12-20T09:19:55;6.22;;;4.50;;
51724;SDS011;37801;53.224;6.552;2022-12-20T09:22:21;7.20;;;4.50;;
51724;SDS011;37801;53.224;6.552;2022-12-20T09:24:47;7.85;;;4.47;;
51724;SDS011;37801;53.224;6.552;2022-12-20T09:27:13;14.52;;;4.65;;
51724;SDS011;37801;53.224;6.552;2022-12-20T09:29:39;6.13;;;3.90;;
51724;SDS011;37801;53.224;6.552;2022-12-20T09:32:04;6.97;;;4.20;;
51724;SDS011;37801;53.224;6.552;2022-12-20T09:34:30;5.65;;;4.07;;
51724;SDS011;37801;53.224;6.552;2022-12-20T09:36:56;7.45;;;4.38;;
51724;SDS011;37801;53.224;6.552;2022-12-20T09:39:22;8.18;;;4.60;;
51724;SDS011;37801;53.224;6.552;2022-12-20T09:41:47;7.00;;;4.75;;
51724;SDS011;37801;53.224;6.552;2022-12-20T09:44:29;8.73;;;4.45;;
51724;SDS011;37801;53.224;6.552;2022-12-20T09:47:03;7.53;;;4.50;;
51724;SDS011;37801;53.224;6.552;2022-12-20T09:49:39;6.70;;;4.05;;
51724;SDS011;37801;53.224;6.552;2022-12-20T09:57:17;8.27;;;4.22;;
51724;SDS011;37801;53.224;6.552;2022-12-20T09:59:50;7.32;;;3.65;;
51724;SDS011;37801;53.224;6.552;2022-12-20T10:02:19;6.28;;;3.90;;
51724;SDS011;37801;53.224;6.552;2022-12-20T10:04:47;6.38;;;3.90;;
51724;SDS011;37801;53.224;6.552;2022-12-20T10:15:30;7.13;;;3.50;;
51724;SDS011;37801;53.224;6.552;2022-12-20T10:18:16;5.47;;;3.28;;
51724;SDS011;37801;53.224;6.552;2022-12-20T10:20:59;5.93;;;3.47;;
51724;SDS011;37801;53.224;6.552;2022-12-20T10:26:09;6.30;;;3.80;;
51724;SDS011;37801;53.224;6.552;2022-12-20T10:28:36;7.32;;;4.03;;
51724;SDS011;37801;53.224;6.552;2022-12-20T10:31:06;9.23;;;4.13;;
51724;SDS011;37801;53.224;6.552;2022-12-20T10:33:36;6.75;;;3.80;;
51724;SDS011;37801;53.224;6.552;2022-12-20T10:36:22;8.20;;;4.05;;
51724;SDS011;37801;53.224;6.552;2022-12-20T10:38:54;6.47;;;3.58;;
51724;SDS011;37801;53.224;6.552;2022-12-20T10:41:32;6.63;;;3.25;;
51724;SDS011;37801;53.224;6.552;2022-12-20T10:44:10;5.78;;;3.05;;
51724;SDS011;37801;53.224;6.552;2022-12-20T10:46:41;5.97;;;3.30;;
51724;SDS011;37801;53.224;6.552;2022-12-20T10:59:59;5.85;;;3.28;;
51724;SDS011;37801;53.224;6.552;2022-12-20T11:05:20;6.15;;;3.20;;
51724;SDS011;37801;53.224;6.552;2022-12-20T11:10:23;5.47;;;3.55;;
51724;SDS011;37801;53.224;6.552;2022-12-20T11:12:55;5.82;;;3.50;;
51724;SDS011;37801;53.224;6.552;2022-12-20T11:15:29;5.78;;;3.33;;
51724;SDS011;37801;53.224;6.552;2022-12-20T11:23:50;8.50;;;3.90;;
51724;SDS011;37801;53.224;6.552;2022-12-20T11:34:49;7.60;;;3.60;;
51724;SDS011;37801;53.224;6.552;2022-12-20T11:37:31;5.47;;;2.97;;
51724;SDS011;37801;53.224;6.552;2022-12-20T11:53:34;6.60;;;3.42;;
51724;SDS011;37801;53.224;6.552;2022-12-20T11:56:16;7.45;;;3.50;;
51724;SDS011;37801;53.224;6.552;2022-12-20T11:58:49;6.78;;;3.72;;
51724;SDS011;37801;53.224;6.552;2022-12-20T12:01:21;6.35;;;3.70;;
51724;SDS011;37801;53.224;6.552;2022-12-20T12:06:28;5.30;;;3.33;;
51724;SDS011;37801;53.224;6.552;2022-12-20T12:11:42;5.07;;;3.25;;
51724;SDS011;37801;53.224;6.552;2022-12-20T12:14:26;6.75;;;3.90;;
51724;SDS011;37801;53.224;6.552;2022-12-20T12:17:08;4.80;;;3.38;;
51724;SDS011;37801;53.224;6.552;2022-12-20T12:19:42;5.90;;;3.50;;
51724;SDS011;37801;53.224;6.552;2022-12-20T12:22:13;5.88;;;3.70;;
51724;SDS011;37801;53.224;6.552;2022-12-20T12:24:44;5.78;;;3.75;;
51724;SDS011;37801;53.224;6.552;2022-12-20T12:27:21;6.47;;;3.65;;
51724;SDS011;37801;53.224;6.552;2022-12-20T12:29:49;5.45;;;3.63;;
51724;SDS011;37801;53.224;6.552;2022-12-20T12:47:57;7.35;;;3.63;;
51724;SDS011;37801;53.224;6.552;2022-12-20T12:50:35;4.05;;;3.08;;
51724;SDS011;37801;53.224;6.552;2022-12-20T12:53:16;5.53;;;3.45;;
51724;SDS011;37801;53.224;6.552;2022-12-20T12:55:47;6.25;;;3.47;;
51724;SDS011;37801;53.224;6.552;2022-12-20T13:09:09;5.03;;;3.58;;
51724;SDS011;37801;53.224;6.552;2022-12-20T13:11:42;5.68;;;3.80;;
51724;SDS011;37801;53.224;6.552;2022-12-20T13:16:49;6.28;;;4.03;;
51724;SDS011;37801;53.224;6.552;2022-12-20T13:19:16;6.20;;;4.18;;
51724;SDS011;37801;53.224;6.552;2022-12-20T13:37:53;6.10;;;4.65;;
51724;SDS011;37801;53.224;6.552;2022-12-20T13:45:45;7.53;;;5.20;;
51724;SDS011;37801;53.224;6.552;2022-12-20T13:51:15;7.50;;;5.70;;
51724;SDS011;37801;53.224;6.552;2022-12-20T13:58:51;8.93;;;5.75;;
51724;SDS011;37801;53.224;6.552;2022-12-20T14:01:19;7.97;;;5.85;;
51724;SDS011;37801;53.224;6.552;2022-12-20T14:03:47;9.43;;;6.20;;
51724;SDS011;37801;53.224;6.552;2022-12-20T14:06:14;8.82;;;6.47;;
51724;SDS011;37801;53.224;6.552;2022-12-20T14:08:44;10.35;;;6.78;;
51724;SDS011;37801;53.224;6.552;2022-12-20T14:11:13;10.30;;;6.93;;
51724;SDS011;37801;53.224;6.552;2022-12-20T14:13:51;9.30;;;6.43;;
51724;SDS011;37801;53.224;6.552;2022-12-20T14:16:20;10.40;;;6.55;;
51724;SDS011;37801;53.224;6.552;2022-12-20T14:18:48;9.52;;;7.13;;
51724;SDS011;37801;53.224;6.552;2022-12-20T14:21:34;10.50;;;6.85;;
51724;SDS011;37801;53.224;6.552;2022-12-20T14:24:04;8.50;;;6.70;;
51724;SDS011;37801;53.224;6.552;2022-12-20T14:26:40;10.27;;;7.10;;
51724;SDS011;37801;53.224;6.552;2022-12-20T14:29:15;11.95;;;7.65;;
51724;SDS011;37801;53.224;6.552;2022-12-20T14:31:43;10.32;;;7.40;;
51724;SDS011;37801;53.224;6.552;2022-12-20T14:34:14;10.07;;;7.63;;
51724;SDS011;37801;53.224;6.552;2022-12-20T14:36:47;11.85;;;8.15;;
51724;SDS011;37801;53.224;6.552;2022-12-20T14:39:27;12.02;;;8.55;;
51724;SDS011;37801;53.224;6.552;2022-12-20T14:44:22;10.68;;;8.00;;
51724;SDS011;37801;53.224;6.552;2022-12-20T14:46:52;9.88;;;7.93;;
51724;SDS011;37801;53.224;6.552;2022-12-20T14:54:44;11.90;;;8.98;;
51724;SDS011;37801;53.224;6.552;2022-12-20T14:57:22;12.63;;;9.07;;
51724;SDS011;37801;53.224;6.552;2022-12-20T14:59:58;11.30;;;8.77;;
51724;SDS011;37801;53.224;6.552;2022-12-20T15:02:32;11.50;;;9.95;;
51724;SDS011;37801;53.224;6.552;2022-12-20T15:10:41;11.68;;;9.35;;
51724;SDS011;37801;53.224;6.552;2022-12-20T15:13:14;12.02;;;10.18;;
51724;SDS011;37801;53.224;6.552;2022-12-20T15:15:42;14.60;;;11.05;;
51724;SDS011;37801;53.224;6.552;2022-12-20T15:18:12;13.18;;;10.82;;
51724;SDS011;37801;53.224;6.552;2022-12-20T15:20:40;13.13;;;11.27;;
51724;SDS011;37801;53.224;6.552;2022-12-20T15:23:09;13.45;;;11.57;;
51724;SDS011;37801;53.224;6.552;2022-12-20T15:25:44;15.02;;;12.13;;
51724;SDS011;37801;53.224;6.552;2022-12-20T15:28:15;18.33;;;12.20;;
51724;SDS011;37801;53.224;6.552;2022-12-20T15:30:46;16.02;;;12.30;;
51724;SDS011;37801;53.224;6.552;2022-12-20T15:33:17;18.35;;;12.48;;
51724;SDS011;37801;53.224;6.552;2022-12-20T15:35:46;18.33;;;12.75;;
51724;SDS011;37801;53.224;6.552;2022-12-20T15:38:16;18.58;;;12.73;;
51724;SDS011;37801;53.224;6.552;2022-12-20T15:40:45;16.45;;;13.10;;
51724;SDS011;37801;53.224;6.552;2022-12-20T15:43:12;17.13;;;13.60;;
51724;SDS011;37801;53.224;6.552;2022-12-20T15:45:41;17.52;;;13.50;;
51724;SDS011;37801;53.224;6.552;2022-12-20T15:48:12;16.70;;;13.48;;
51724;SDS011;37801;53.224;6.552;2022-12-20T15:50:41;18.35;;;13.20;;
51724;SDS011;37801;53.224;6.552;2022-12-20T15:53:13;20.05;;;14.48;;
51724;SDS011;37801;53.224;6.552;2022-12-20T15:55:41;18.13;;;14.57;;
51724;SDS011;37801;53.224;6.552;2022-12-20T15:58:07;17.85;;;13.85;;
51724;SDS011;37801;53.224;6.552;2022-12-20T16:00:35;20.65;;;14.38;;
51724;SDS011;37801;53.224;6.552;2022-12-20T16:03:03;17.17;;;14.23;;
51724;SDS011;37801;53.224;6.552;2022-12-20T16:05:29;16.70;;;14.18;;
51724;SDS011;37801;53.224;6.552;2022-12-20T16:07:54;16.13;;;14.27;;
51724;SDS011;37801;53.224;6.552;2022-12-20T16:10:20;22.85;;;17.65;;
51724;SDS011;37801;53.224;6.552;2022-12-20T16:12:46;22.05;;;17.77;;
51724;SDS011;37801;53.224;6.552;2022-12-20T16:15:19;21.83;;;16.73;;
51724;SDS011;37801;53.224;6.552;2022-12-20T16:17:46;19.83;;;16.73;;
51724;SDS011;37801;53.224;6.552;2022-12-20T16:20:12;19.67;;;16.20;;
51724;SDS011;37801;53.224;6.552;2022-12-20T16:22:37;22.73;;;17.50;;
51724;SDS011;37801;53.224;6.552;2022-12-20T16:25:03;20.15;;;17.30;;
51724;SDS011;37801;53.224;6.552;2022-12-20T16:27:29;23.85;;;18.98;;
51724;SDS011;37801;53.224;6.552;2022-12-20T16:29:55;22.52;;;18.40;;
51724;SDS011;37801;53.224;6.552;2022-12-20T16:32:21;22.40;;;18.58;;
51724;SDS011;37801;53.224;6.552;2022-12-20T16:34:50;24.35;;;18.25;;
51724;SDS011;37801;53.224;6.552;2022-12-20T16:37:16;22.67;;;18.65;;
51724;SDS011;37801;53.224;6.552;2022-12-20T16:39:42;26.90;;;21.38;;
51724;SDS011;37801;53.224;6.552;2022-12-20T16:42:18;29.17;;;22.88;;
51724;SDS011;37801;53.224;6.552;2022-12-20T16:44:51;31.65;;;23.20;;
51724;SDS011;37801;53.224;6.552;2022-12-20T16:47:17;28.15;;;22.35;;
51724;SDS011;37801;53.224;6.552;2022-12-20T16:49:43;23.42;;;19.95;;
51724;SDS011;37801;53.224;6.552;2022-12-20T16:52:13;23.98;;;19.48;;
51724;SDS011;37801;53.224;6.552;2022-12-20T16:54:42;21.60;;;18.33;;
51724;SDS011;37801;53.224;6.552;2022-12-20T16:57:07;20.60;;;17.92;;
51724;SDS011;37801;53.224;6.552;2022-12-20T16:59:34;22.15;;;19.30;;
51724;SDS011;37801;53.224;6.552;2022-12-20T17:01:59;24.55;;;19.65;;
51724;SDS011;37801;53.224;6.552;2022-12-20T17:04:25;28.95;;;19.50;;
51724;SDS011;37801;53.224;6.552;2022-12-20T17:06:51;24.15;;;19.40;;
51724;SDS011;37801;53.224;6.552;2022-12-20T17:09:18;23.25;;;18.58;;
51724;SDS011;37801;53.224;6.552;2022-12-20T17:11:44;21.63;;;18.67;;
51724;SDS011;37801;53.224;6.552;2022-12-20T17:14:10;24.00;;;19.75;;
51724;SDS011;37801;53.224;6.552;2022-12-20T17:16:37;26.17;;;20.52;;
51724;SDS011;37801;53.224;6.552;2022-12-20T17:19:02;25.52;;;20.23;;
51724;SDS011;37801;53.224;6.552;2022-12-20T17:21:42;23.50;;;18.95;;
51724;SDS011;37801;53.224;6.552;2022-12-20T17:24:18;24.10;;;19.92;;
51724;SDS011;37801;53.224;6.552;2022-12-20T17:26:45;28.85;;;21.27;;